Kensington, Canada
Current Conditions -  °F | °C
As of 2:00 PM on Thursday 30 Oct 2014 (Local Time) from CYYG Reporting Station
Broken Clouds Broken Clouds  
Wind Chill: 54°   Ceiling: 25000
Heat Index: 54°   Visibility: 15mi
Dew Point: 43°   Wind: 10mph
Humidity: 67%   Direction: 290°WNW
Pressure: 29.76"   Gusts: NA
Location:  46.43°N, 63.65°W
Report Text: CYYG 301700Z 29009KT 15SM SCT028 BKN250 12/06 A2976 RMK SC3CI4 SLP079
Loading
Personal Weather Stations






























Interactive Weather Map New forecast layout! Learn more

10-Day Weather Forecast

Advertisements
Track Severe Weather on mobile